sensor_id;sensor_type;location;lat;lon;timestamp;temperature;humidity
9662;DHT22;24982;52.344;12.990;2023-09-19T00:02:19;19.90;99.90
9662;DHT22;24982;52.344;12.990;2023-09-19T00:05:21;19.90;99.90
9662;DHT22;24982;52.344;12.990;2023-09-19T00:08:24;19.90;99.90
9662;DHT22;24982;52.344;12.990;2023-09-19T00:11:27;19.80;99.90
9662;DHT22;24982;52.344;12.990;2023-09-19T00:14:29;19.90;99.90
9662;DHT22;24982;52.344;12.990;2023-09-19T00:17:34;19.90;99.90
9662;DHT22;24982;52.344;12.990;2023-09-19T00:20:38;19.90;99.90
9662;DHT22;24982;52.344;12.990;2023-09-19T00:23:40;20.00;99.90
9662;DHT22;24982;52.344;12.990;2023-09-19T00:26:43;20.00;99.90
9662;DHT22;24982;52.344;12.990;2023-09-19T00:38:32;19.90;99.90
9662;DHT22;24982;52.344;12.990;2023-09-19T00:41:34;19.90;99.90
9662;DHT22;24982;52.344;12.990;2023-09-19T00:44:38;19.90;99.90
9662;DHT22;24982;52.344;12.990;2023-09-19T00:47:41;19.90;99.90
9662;DHT22;24982;52.344;12.990;2023-09-19T00:50:45;19.90;99.90
9662;DHT22;24982;52.344;12.990;2023-09-19T00:53:50;19.90;99.90
9662;DHT22;24982;52.344;12.990;2023-09-19T00:56:52;19.90;99.90
9662;DHT22;24982;52.344;12.990;2023-09-19T00:59:57;19.80;99.90
9662;DHT22;24982;52.344;12.990;2023-09-19T01:02:59;19.90;99.90
9662;DHT22;24982;52.344;12.990;2023-09-19T01:06:01;19.90;99.90
9662;DHT22;24982;52.344;12.990;2023-09-19T01:09:04;19.80;99.90
9662;DHT22;24982;52.344;12.990;2023-09-19T01:12:08;19.90;99.90
9662;DHT22;24982;52.344;12.990;2023-09-19T01:15:21;19.90;99.90
9662;DHT22;24982;52.344;12.990;2023-09-19T01:18:38;20.00;99.90
9662;DHT22;24982;52.344;12.990;2023-09-19T01:21:48;19.90;99.90
9662;DHT22;24982;52.344;12.990;2023-09-19T01:25:13;19.90;99.90
9662;DHT22;24982;52.344;12.990;2023-09-19T01:28:30;19.90;99.90
9662;DHT22;24982;52.344;12.990;2023-09-19T01:31:40;19.90;99.90
9662;DHT22;24982;52.344;12.990;2023-09-19T01:34:45;19.80;99.90
9662;DHT22;24982;52.344;12.990;2023-09-19T01:37:49;19.70;99.90
9662;DHT22;24982;52.344;12.990;2023-09-19T01:40:57;19.80;99.90
9662;DHT22;24982;52.344;12.990;2023-09-19T01:44:03;19.90;99.90
9662;DHT22;24982;52.344;12.990;2023-09-19T01:47:18;19.90;99.90
9662;DHT22;24982;52.344;12.990;2023-09-19T01:50:29;19.90;99.90
9662;DHT22;24982;52.344;12.990;2023-09-19T01:53:35;19.80;99.90
9662;DHT22;24982;52.344;12.990;2023-09-19T01:56:42;19.80;99.90
9662;DHT22;24982;52.344;12.990;2023-09-19T01:59:50;19.70;99.90
9662;DHT22;24982;52.344;12.990;2023-09-19T02:02:56;19.70;99.90
9662;DHT22;24982;52.344;12.990;2023-09-19T02:06:00;19.80;99.90
9662;DHT22;24982;52.344;12.990;2023-09-19T02:09:04;19.90;99.90
9662;DHT22;24982;52.344;12.990;2023-09-19T02:12:06;19.70;99.90
9662;DHT22;24982;52.344;12.990;2023-09-19T02:15:09;19.80;99.90
9662;DHT22;24982;52.344;12.990;2023-09-19T02:18:12;19.90;99.90
9662;DHT22;24982;52.344;12.990;2023-09-19T02:21:15;19.80;99.90
9662;DHT22;24982;52.344;12.990;2023-09-19T02:24:17;19.70;99.90
9662;DHT22;24982;52.344;12.990;2023-09-19T02:27:21;19.70;99.90
9662;DHT22;24982;52.344;12.990;2023-09-19T02:30:23;19.70;99.90
9662;DHT22;24982;52.344;12.990;2023-09-19T02:33:28;19.70;99.90
9662;DHT22;24982;52.344;12.990;2023-09-19T02:36:33;19.60;99.90
9662;DHT22;24982;52.344;12.990;2023-09-19T02:39:35;19.60;99.90
9662;DHT22;24982;52.344;12.990;2023-09-19T02:42:37;19.50;99.90
9662;DHT22;24982;52.344;12.990;2023-09-19T02:45:39;19.60;99.90
9662;DHT22;24982;52.344;12.990;2023-09-19T02:48:43;19.50;99.90
9662;DHT22;24982;52.344;12.990;2023-09-19T02:51:45;19.60;99.90
9662;DHT22;24982;52.344;12.990;2023-09-19T02:54:48;19.60;99.90
9662;DHT22;24982;52.344;12.990;2023-09-19T02:57:52;19.60;99.90
9662;DHT22;24982;52.344;12.990;2023-09-19T03:00:55;19.50;99.90
9662;DHT22;24982;52.344;12.990;2023-09-19T03:04:00;19.60;99.90
9662;DHT22;24982;52.344;12.990;2023-09-19T03:07:03;19.60;99.90
9662;DHT22;24982;52.344;12.990;2023-09-19T03:10:07;19.60;99.90
9662;DHT22;24982;52.344;12.990;2023-09-19T03:13:10;19.50;99.90
9662;DHT22;24982;52.344;12.990;2023-09-19T03:16:12;19.60;99.90
9662;DHT22;24982;52.344;12.990;2023-09-19T03:19:17;19.60;99.90
9662;DHT22;24982;52.344;12.990;2023-09-19T03:22:23;19.50;99.90
9662;DHT22;24982;52.344;12.990;2023-09-19T03:25:25;19.50;99.90
9662;DHT22;24982;52.344;12.990;2023-09-19T03:28:29;19.40;99.90
9662;DHT22;24982;52.344;12.990;2023-09-19T03:31:33;19.40;99.90
9662;DHT22;24982;52.344;12.990;2023-09-19T03:34:39;19.40;99.90
9662;DHT22;24982;52.344;12.990;2023-09-19T03:37:44;19.30;99.90
9662;DHT22;24982;52.344;12.990;2023-09-19T03:40:47;19.30;99.90
9662;DHT22;24982;52.344;12.990;2023-09-19T03:43:49;19.40;99.90
9662;DHT22;24982;52.344;12.990;2023-09-19T03:46:51;19.40;99.90
9662;DHT22;24982;52.344;12.990;2023-09-19T03:49:55;19.40;99.90
9662;DHT22;24982;52.344;12.990;2023-09-19T03:52:57;19.40;99.90
9662;DHT22;24982;52.344;12.990;2023-09-19T03:55:59;19.40;99.90
9662;DHT22;24982;52.344;12.990;2023-09-19T03:59:03;19.30;99.90
9662;DHT22;24982;52.344;12.990;2023-09-19T04:02:05;19.40;99.90
9662;DHT22;24982;52.344;12.990;2023-09-19T04:05:13;19.40;99.90
9662;DHT22;24982;52.344;12.990;2023-09-19T04:08:16;19.30;99.90
9662;DHT22;24982;52.344;12.990;2023-09-19T04:11:18;19.30;99.90
9662;DHT22;24982;52.344;12.990;2023-09-19T04:14:20;19.30;99.90
9662;DHT22;24982;52.344;12.990;2023-09-19T04:17:23;19.20;99.90
9662;DHT22;24982;52.344;12.990;2023-09-19T04:20:27;19.30;99.90
9662;DHT22;24982;52.344;12.990;2023-09-19T04:23:29;19.20;99.90
9662;DHT22;24982;52.344;12.990;2023-09-19T04:26:31;19.20;99.90
9662;DHT22;24982;52.344;12.990;2023-09-19T04:29:33;19.20;99.90
9662;DHT22;24982;52.344;12.990;2023-09-19T04:32:35;19.30;99.90
9662;DHT22;24982;52.344;12.990;2023-09-19T04:35:40;19.30;99.90
9662;DHT22;24982;52.344;12.990;2023-09-19T04:38:43;19.30;99.90
9662;DHT22;24982;52.344;12.990;2023-09-19T04:41:44;19.30;99.90
9662;DHT22;24982;52.344;12.990;2023-09-19T04:44:48;19.30;99.90
9662;DHT22;24982;52.344;12.990;2023-09-19T04:47:50;19.30;99.90
9662;DHT22;24982;52.344;12.990;2023-09-19T04:50:54;19.20;99.90
9662;DHT22;24982;52.344;12.990;2023-09-19T04:53:56;19.20;99.90
9662;DHT22;24982;52.344;12.990;2023-09-19T04:56:58;19.20;99.90
9662;DHT22;24982;52.344;12.990;2023-09-19T05:00:00;19.20;99.90
9662;DHT22;24982;52.344;12.990;2023-09-19T05:03:03;18.90;99.90
9662;DHT22;24982;52.344;12.990;2023-09-19T05:06:08;19.10;99.90
9662;DHT22;24982;52.344;12.990;2023-09-19T05:09:10;18.90;99.90
9662;DHT22;24982;52.344;12.990;2023-09-19T05:12:12;19.10;99.90
9662;DHT22;24982;52.344;12.990;2023-09-19T05:15:14;19.10;99.90
9662;DHT22;24982;52.344;12.990;2023-09-19T05:18:17;19.20;99.90
9662;DHT22;24982;52.344;12.990;2023-09-19T05:21:20;19.10;99.90
9662;DHT22;24982;52.344;12.990;2023-09-19T05:24:24;19.10;99.90
9662;DHT22;24982;52.344;12.990;2023-09-19T05:27:27;19.10;99.90
9662;DHT22;24982;52.344;12.990;2023-09-19T05:30:29;19.20;99.90
9662;DHT22;24982;52.344;12.990;2023-09-19T05:33:31;19.10;99.90
9662;DHT22;24982;52.344;12.990;2023-09-19T05:36:35;19.10;99.90
9662;DHT22;24982;52.344;12.990;2023-09-19T05:39:36;19.10;99.90
9662;DHT22;24982;52.344;12.990;2023-09-19T05:42:38;19.10;99.90
9662;DHT22;24982;52.344;12.990;2023-09-19T05:45:41;19.00;99.90
9662;DHT22;24982;52.344;12.990;2023-09-19T05:48:43;19.00;99.90
9662;DHT22;24982;52.344;12.990;2023-09-19T05:51:49;19.00;99.90
9662;DHT22;24982;52.344;12.990;2023-09-19T05:54:54;19.00;99.90
9662;DHT22;24982;52.344;12.990;2023-09-19T05:57:57;19.00;99.90
9662;DHT22;24982;52.344;12.990;2023-09-19T06:00:59;19.00;99.90
9662;DHT22;24982;52.344;12.990;2023-09-19T06:04:00;18.90;99.90
9662;DHT22;24982;52.344;12.990;2023-09-19T06:07:04;19.00;99.90
9662;DHT22;24982;52.344;12.990;2023-09-19T06:10:06;19.00;99.90
9662;DHT22;24982;52.344;12.990;2023-09-19T06:13:11;19.00;99.90
9662;DHT22;24982;52.344;12.990;2023-09-19T06:16:13;19.00;99.90
9662;DHT22;24982;52.344;12.990;2023-09-19T06:19:15;19.00;99.90
9662;DHT22;24982;52.344;12.990;2023-09-19T06:22:18;19.00;99.90
9662;DHT22;24982;52.344;12.990;2023-09-19T06:25:21;19.00;99.90
9662;DHT22;24982;52.344;12.990;2023-09-19T06:28:23;18.30;99.90
9662;DHT22;24982;52.344;12.990;2023-09-19T06:31:26;18.00;99.90
9662;DHT22;24982;52.344;12.990;2023-09-19T06:34:28;17.80;99.90
9662;DHT22;24982;52.344;12.990;2023-09-19T06:37:31;17.60;99.90
9662;DHT22;24982;52.344;12.990;2023-09-19T06:40:34;17.60;99.90
9662;DHT22;24982;52.344;12.990;2023-09-19T06:43:36;17.70;99.90
9662;DHT22;24982;52.344;12.990;2023-09-19T06:46:37;17.70;99.90
9662;DHT22;24982;52.344;12.990;2023-09-19T06:49:40;17.80;99.90
9662;DHT22;24982;52.344;12.990;2023-09-19T06:52:46;17.80;99.90
9662;DHT22;24982;52.344;12.990;2023-09-19T06:55:50;17.90;99.90
9662;DHT22;24982;52.344;12.990;2023-09-19T06:58:52;18.00;99.90
9662;DHT22;24982;52.344;12.990;2023-09-19T07:01:54;18.10;99.90
9662;DHT22;24982;52.344;12.990;2023-09-19T07:04:56;18.20;99.90
9662;DHT22;24982;52.344;12.990;2023-09-19T07:08:00;18.20;99.90
9662;DHT22;24982;52.344;12.990;2023-09-19T07:11:02;18.30;99.90
9662;DHT22;24982;52.344;12.990;2023-09-19T07:14:06;18.40;99.90
9662;DHT22;24982;52.344;12.990;2023-09-19T07:17:08;18.40;99.90
9662;DHT22;24982;52.344;12.990;2023-09-19T07:20:10;18.40;99.90
9662;DHT22;24982;52.344;12.990;2023-09-19T07:23:19;18.30;99.90
9662;DHT22;24982;52.344;12.990;2023-09-19T07:26:22;18.50;99.90
9662;DHT22;24982;52.344;12.990;2023-09-19T07:29:24;18.50;99.90
9662;DHT22;24982;52.344;12.990;2023-09-19T07:32:26;18.40;99.90
9662;DHT22;24982;52.344;12.990;2023-09-19T07:35:28;18.40;99.90
9662;DHT22;24982;52.344;12.990;2023-09-19T07:38:32;18.40;99.90
9662;DHT22;24982;52.344;12.990;2023-09-19T07:41:36;18.40;99.90
9662;DHT22;24982;52.344;12.990;2023-09-19T07:44:38;18.50;99.90
9662;DHT22;24982;52.344;12.990;2023-09-19T07:47:40;18.50;99.90
9662;DHT22;24982;52.344;12.990;2023-09-19T07:50:42;18.60;99.90
9662;DHT22;24982;52.344;12.990;2023-09-19T07:53:46;18.60;99.90
9662;DHT22;24982;52.344;12.990;2023-09-19T07:56:49;18.50;99.90
9662;DHT22;24982;52.344;12.990;2023-09-19T07:59:51;18.60;99.90
9662;DHT22;24982;52.344;12.990;2023-09-19T08:02:53;18.90;99.90
9662;DHT22;24982;52.344;12.990;2023-09-19T08:05:56;19.10;99.90
9662;DHT22;24982;52.344;12.990;2023-09-19T08:08:59;19.10;99.90
9662;DHT22;24982;52.344;12.990;2023-09-19T08:12:08;19.10;99.90
9662;DHT22;24982;52.344;12.990;2023-09-19T08:15:11;19.10;99.90
9662;DHT22;24982;52.344;12.990;2023-09-19T08:18:13;19.10;99.90
9662;DHT22;24982;52.344;12.990;2023-09-19T08:21:15;19.10;99.90
9662;DHT22;24982;52.344;12.990;2023-09-19T08:24:18;19.20;99.90
9662;DHT22;24982;52.344;12.990;2023-09-19T08:27:20;19.30;99.90
9662;DHT22;24982;52.344;12.990;2023-09-19T08:30:23;19.30;99.90
9662;DHT22;24982;52.344;12.990;2023-09-19T08:33:25;19.30;99.90
9662;DHT22;24982;52.344;12.990;2023-09-19T08:36:27;19.40;99.90
9662;DHT22;24982;52.344;12.990;2023-09-19T08:39:30;19.40;99.90
9662;DHT22;24982;52.344;12.990;2023-09-19T08:42:47;19.30;99.90
9662;DHT22;24982;52.344;12.990;2023-09-19T08:45:50;19.40;99.90
9662;DHT22;24982;52.344;12.990;2023-09-19T08:48:59;19.50;99.90
9662;DHT22;24982;52.344;12.990;2023-09-19T08:52:10;19.60;99.90
9662;DHT22;24982;52.344;12.990;2023-09-19T08:55:19;19.70;99.90
9662;DHT22;24982;52.344;12.990;2023-09-19T08:58:27;19.70;99.90
9662;DHT22;24982;52.344;12.990;2023-09-19T09:01:32;19.50;99.90
9662;DHT22;24982;52.344;12.990;2023-09-19T09:04:34;19.40;99.90
9662;DHT22;24982;52.344;12.990;2023-09-19T09:07:37;19.40;99.90
9662;DHT22;24982;52.344;12.990;2023-09-19T09:10:40;19.30;99.90
9662;DHT22;24982;52.344;12.990;2023-09-19T09:13:43;19.50;99.90
9662;DHT22;24982;52.344;12.990;2023-09-19T09:16:45;19.70;99.90
9662;DHT22;24982;52.344;12.990;2023-09-19T09:19:49;19.90;99.90
9662;DHT22;24982;52.344;12.990;2023-09-19T09:22:53;20.20;99.90
9662;DHT22;24982;52.344;12.990;2023-09-19T09:25:57;20.10;99.90
9662;DHT22;24982;52.344;12.990;2023-09-19T09:29:03;20.00;99.90
9662;DHT22;24982;52.344;12.990;2023-09-19T09:32:17;20.10;99.90
9662;DHT22;24982;52.344;12.990;2023-09-19T09:35:20;20.30;99.90
9662;DHT22;24982;52.344;12.990;2023-09-19T09:38:23;20.50;99.90
9662;DHT22;24982;52.344;12.990;2023-09-19T09:41:36;20.40;99.90
9662;DHT22;24982;52.344;12.990;2023-09-19T09:44:40;20.60;99.90
9662;DHT22;24982;52.344;12.990;2023-09-19T09:47:44;20.20;99.90
9662;DHT22;24982;52.344;12.990;2023-09-19T09:50:56;19.90;99.90
9662;DHT22;24982;52.344;12.990;2023-09-19T09:54:10;20.30;99.90
9662;DHT22;24982;52.344;12.990;2023-09-19T09:57:14;20.40;99.90
9662;DHT22;24982;52.344;12.990;2023-09-19T10:00:18;20.80;99.90
9662;DHT22;24982;52.344;12.990;2023-09-19T10:03:21;20.70;99.90
9662;DHT22;24982;52.344;12.990;2023-09-19T10:06:23;20.70;99.90
9662;DHT22;24982;52.344;12.990;2023-09-19T10:09:29;20.90;99.90
9662;DHT22;24982;52.344;12.990;2023-09-19T10:12:43;20.90;99.90
9662;DHT22;24982;52.344;12.990;2023-09-19T10:15:48;21.10;99.90
9662;DHT22;24982;52.344;12.990;2023-09-19T10:18:54;21.50;99.90
9662;DHT22;24982;52.344;12.990;2023-09-19T10:21:59;21.70;99.90
9662;DHT22;24982;52.344;12.990;2023-09-19T10:25:04;21.20;99.90
9662;DHT22;24982;52.344;12.990;2023-09-19T10:28:10;21.20;99.90
9662;DHT22;24982;52.344;12.990;2023-09-19T10:31:18;21.30;99.90
9662;DHT22;24982;52.344;12.990;2023-09-19T10:34:22;21.30;99.90
9662;DHT22;24982;52.344;12.990;2023-09-19T10:37:27;21.40;99.90
9662;DHT22;24982;52.344;12.990;2023-09-19T10:40:33;21.10;99.90
9662;DHT22;24982;52.344;12.990;2023-09-19T10:43:38;21.20;99.90
9662;DHT22;24982;52.344;12.990;2023-09-19T10:46:45;21.10;99.90
9662;DHT22;24982;52.344;12.990;2023-09-19T10:49:48;20.90;99.90
9662;DHT22;24982;52.344;12.990;2023-09-19T10:52:51;21.00;99.90
9662;DHT22;24982;52.344;12.990;2023-09-19T10:55:59;21.00;99.90
9662;DHT22;24982;52.344;12.990;2023-09-19T10:59:09;21.20;99.90
9662;DHT22;24982;52.344;12.990;2023-09-19T11:02:17;21.10;99.90
9662;DHT22;24982;52.344;12.990;2023-09-19T11:05:19;21.10;99.90
9662;DHT22;24982;52.344;12.990;2023-09-19T11:08:21;21.30;99.90
9662;DHT22;24982;52.344;12.990;2023-09-19T11:11:43;21.70;99.90
9662;DHT22;24982;52.344;12.990;2023-09-19T11:14:52;21.60;99.90
9662;DHT22;24982;52.344;12.990;2023-09-19T11:17:54;21.60;99.90
9662;DHT22;24982;52.344;12.990;2023-09-19T11:24:29;21.60;99.90
9662;DHT22;24982;52.344;12.990;2023-09-19T11:31:52;21.60;99.90
9662;DHT22;24982;52.344;12.990;2023-09-19T11:35:07;21.80;99.90
9662;DHT22;24982;52.344;12.990;2023-09-19T11:38:10;21.80;99.90
9662;DHT22;24982;52.344;12.990;2023-09-19T11:41:39;21.80;99.90
9662;DHT22;24982;52.344;12.990;2023-09-19T11:44:40;21.90;99.90
9662;DHT22;24982;52.344;12.990;2023-09-19T11:47:45;22.00;99.90
9662;DHT22;24982;52.344;12.990;2023-09-19T11:50:48;22.10;99.90
9662;DHT22;24982;52.344;12.990;2023-09-19T11:53:52;22.00;99.90
9662;DHT22;24982;52.344;12.990;2023-09-19T11:56:55;22.00;99.90
9662;DHT22;24982;52.344;12.990;2023-09-19T11:59:58;22.00;99.90
9662;DHT22;24982;52.344;12.990;2023-09-19T12:03:07;22.10;99.90
9662;DHT22;24982;52.344;12.990;2023-09-19T12:06:13;22.20;99.90
9662;DHT22;24982;52.344;12.990;2023-09-19T12:09:16;22.30;99.90
9662;DHT22;24982;52.344;12.990;2023-09-19T12:12:23;22.50;99.90
9662;DHT22;24982;52.344;12.990;2023-09-19T12:15:28;22.50;99.90
9662;DHT22;24982;52.344;12.990;2023-09-19T12:18:36;22.50;99.90
9662;DHT22;24982;52.344;12.990;2023-09-19T12:21:38;22.50;99.90
9662;DHT22;24982;52.344;12.990;2023-09-19T12:24:41;22.50;99.90
9662;DHT22;24982;52.344;12.990;2023-09-19T12:27:45;22.50;99.90
9662;DHT22;24982;52.344;12.990;2023-09-19T12:30:48;22.40;99.90
9662;DHT22;24982;52.344;12.990;2023-09-19T12:33:54;22.50;99.90
9662;DHT22;24982;52.344;12.990;2023-09-19T12:37:10;22.30;99.90
9662;DHT22;24982;52.344;12.990;2023-09-19T12:40:22;22.40;99.90
9662;DHT22;24982;52.344;12.990;2023-09-19T12:43:28;22.40;99.90
9662;DHT22;24982;52.344;12.990;2023-09-19T12:46:33;22.40;99.90
9662;DHT22;24982;52.344;12.990;2023-09-19T12:50:08;22.40;99.90
9662;DHT22;24982;52.344;12.990;2023-09-19T12:53:25;22.30;99.90
9662;DHT22;24982;52.344;12.990;2023-09-19T12:56:39;22.10;99.90
9662;DHT22;24982;52.344;12.990;2023-09-19T12:59:41;22.20;99.90
9662;DHT22;24982;52.344;12.990;2023-09-19T13:03:15;22.20;99.90
9662;DHT22;24982;52.344;12.990;2023-09-19T13:06:35;22.20;99.90
9662;DHT22;24982;52.344;12.990;2023-09-19T13:09:39;22.20;99.90
9662;DHT22;24982;52.344;12.990;2023-09-19T13:12:42;22.20;99.90
9662;DHT22;24982;52.344;12.990;2023-09-19T13:15:52;22.10;99.90
9662;DHT22;24982;52.344;12.990;2023-09-19T13:18:54;22.20;99.90
9662;DHT22;24982;52.344;12.990;2023-09-19T13:21:59;22.10;99.90
9662;DHT22;24982;52.344;12.990;2023-09-19T13:25:01;22.10;99.90
9662;DHT22;24982;52.344;12.990;2023-09-19T13:28:05;22.00;99.90
9662;DHT22;24982;52.344;12.990;2023-09-19T13:31:07;22.00;99.90
9662;DHT22;24982;52.344;12.990;2023-09-19T13:34:09;22.00;99.90
9662;DHT22;24982;52.344;12.990;2023-09-19T13:37:12;22.00;99.90
9662;DHT22;24982;52.344;12.990;2023-09-19T13:40:16;22.20;99.90
9662;DHT22;24982;52.344;12.990;2023-09-19T13:43:18;22.20;99.90
9662;DHT22;24982;52.344;12.990;2023-09-19T13:46:20;22.10;99.90
9662;DHT22;24982;52.344;12.990;2023-09-19T13:49:26;22.10;99.90
9662;DHT22;24982;52.344;12.990;2023-09-19T13:52:30;22.10;99.90
9662;DHT22;24982;52.344;12.990;2023-09-19T13:55:32;22.10;99.90
9662;DHT22;24982;52.344;12.990;2023-09-19T13:58:34;22.10;99.90
9662;DHT22;24982;52.344;12.990;2023-09-19T14:01:36;22.10;99.90
9662;DHT22;24982;52.344;12.990;2023-09-19T14:04:38;22.00;99.90
9662;DHT22;24982;52.344;12.990;2023-09-19T14:07:41;22.10;99.90
9662;DHT22;24982;52.344;12.990;2023-09-19T14:10:43;22.10;99.90
9662;DHT22;24982;52.344;12.990;2023-09-19T14:13:45;22.00;99.90
9662;DHT22;24982;52.344;12.990;2023-09-19T14:16:49;21.90;99.90
9662;DHT22;24982;52.344;12.990;2023-09-19T14:19:51;21.90;99.90
9662;DHT22;24982;52.344;12.990;2023-09-19T14:22:55;22.10;99.90
9662;DHT22;24982;52.344;12.990;2023-09-19T14:25:56;22.10;99.90
9662;DHT22;24982;52.344;12.990;2023-09-19T14:29:02;22.10;99.90
9662;DHT22;24982;52.344;12.990;2023-09-19T14:32:05;21.80;99.90
9662;DHT22;24982;52.344;12.990;2023-09-19T14:35:07;22.10;99.90
9662;DHT22;24982;52.344;12.990;2023-09-19T14:38:12;21.60;99.90
9662;DHT22;24982;52.344;12.990;2023-09-19T14:41:14;21.50;99.90
9662;DHT22;24982;52.344;12.990;2023-09-19T14:44:16;21.50;99.90
9662;DHT22;24982;52.344;12.990;2023-09-19T14:47:18;21.50;99.90
9662;DHT22;24982;52.344;12.990;2023-09-19T14:50:20;21.60;99.90
9662;DHT22;24982;52.344;12.990;2023-09-19T14:53:24;21.50;99.90
9662;DHT22;24982;52.344;12.990;2023-09-19T14:56:26;21.60;99.90
9662;DHT22;24982;52.344;12.990;2023-09-19T14:59:30;21.60;99.90
9662;DHT22;24982;52.344;12.990;2023-09-19T15:02:33;21.50;99.90
9662;DHT22;24982;52.344;12.990;2023-09-19T15:05:35;21.40;99.90
9662;DHT22;24982;52.344;12.990;2023-09-19T15:08:38;21.70;99.90
9662;DHT22;24982;52.344;12.990;2023-09-19T15:11:41;21.40;99.90
9662;DHT22;24982;52.344;12.990;2023-09-19T15:14:43;21.50;99.90
9662;DHT22;24982;52.344;12.990;2023-09-19T15:17:44;21.40;99.90
9662;DHT22;24982;52.344;12.990;2023-09-19T15:20:47;21.30;99.90
9662;DHT22;24982;52.344;12.990;2023-09-19T15:23:51;21.50;99.90
9662;DHT22;24982;52.344;12.990;2023-09-19T15:26:53;21.50;99.90
9662;DHT22;24982;52.344;12.990;2023-09-19T15:29:56;21.40;99.90
9662;DHT22;24982;52.344;12.990;2023-09-19T15:32:58;21.30;99.90
9662;DHT22;24982;52.344;12.990;2023-09-19T15:36:02;21.30;99.90
9662;DHT22;24982;52.344;12.990;2023-09-19T15:39:06;21.20;99.90
9662;DHT22;24982;52.344;12.990;2023-09-19T15:42:11;21.20;99.90
9662;DHT22;24982;52.344;12.990;2023-09-19T15:45:13;21.20;99.90
9662;DHT22;24982;52.344;12.990;2023-09-19T15:48:16;21.20;99.90
9662;DHT22;24982;52.344;12.990;2023-09-19T15:51:19;21.10;99.90
9662;DHT22;24982;52.344;12.990;2023-09-19T15:54:22;21.00;99.90
9662;DHT22;24982;52.344;12.990;2023-09-19T15:57:26;21.20;99.90
9662;DHT22;24982;52.344;12.990;2023-09-19T16:00:29;21.20;99.90
9662;DHT22;24982;52.344;12.990;2023-09-19T16:03:31;21.10;99.90
9662;DHT22;24982;52.344;12.990;2023-09-19T16:06:33;21.10;99.90
9662;DHT22;24982;52.344;12.990;2023-09-19T16:09:36;21.10;99.90
9662;DHT22;24982;52.344;12.990;2023-09-19T16:12:39;21.10;99.90
9662;DHT22;24982;52.344;12.990;2023-09-19T16:15:41;21.00;99.90
9662;DHT22;24982;52.344;12.990;2023-09-19T16:18:45;21.00;99.90
9662;DHT22;24982;52.344;12.990;2023-09-19T16:21:48;21.00;99.90
9662;DHT22;24982;52.344;12.990;2023-09-19T16:24:51;21.00;99.90
9662;DHT22;24982;52.344;12.990;2023-09-19T16:27:53;20.90;99.90
9662;DHT22;24982;52.344;12.990;2023-09-19T16:30:57;20.90;99.90
9662;DHT22;24982;52.344;12.990;2023-09-19T16:34:00;20.90;99.90
9662;DHT22;24982;52.344;12.990;2023-09-19T16:37:02;20.80;99.90
9662;DHT22;24982;52.344;12.990;2023-09-19T16:40:07;20.80;99.90
9662;DHT22;24982;52.344;12.990;2023-09-19T16:43:09;20.70;99.90
9662;DHT22;24982;52.344;12.990;2023-09-19T16:46:13;20.60;99.90
9662;DHT22;24982;52.344;12.990;2023-09-19T16:49:16;20.70;99.90
9662;DHT22;24982;52.344;12.990;2023-09-19T16:52:18;20.70;99.90
9662;DHT22;24982;52.344;12.990;2023-09-19T16:55:21;20.70;99.90
9662;DHT22;24982;52.344;12.990;2023-09-19T16:58:23;20.60;99.90
9662;DHT22;24982;52.344;12.990;2023-09-19T17:01:26;20.60;99.90
9662;DHT22;24982;52.344;12.990;2023-09-19T17:04:27;20.40;99.90
9662;DHT22;24982;52.344;12.990;2023-09-19T17:07:31;20.50;99.90
9662;DHT22;24982;52.344;12.990;2023-09-19T17:10:36;20.60;99.90
9662;DHT22;24982;52.344;12.990;2023-09-19T17:13:38;20.50;99.90
9662;DHT22;24982;52.344;12.990;2023-09-19T17:16:41;20.60;99.90
9662;DHT22;24982;52.344;12.990;2023-09-19T17:19:43;20.50;99.90
9662;DHT22;24982;52.344;12.990;2023-09-19T17:22:45;20.50;99.90
9662;DHT22;24982;52.344;12.990;2023-09-19T17:25:48;20.40;99.90
9662;DHT22;24982;52.344;12.990;2023-09-19T17:28:51;20.40;99.90
9662;DHT22;24982;52.344;12.990;2023-09-19T17:31:53;20.40;99.90
9662;DHT22;24982;52.344;12.990;2023-09-19T17:34:55;20.40;99.90
9662;DHT22;24982;52.344;12.990;2023-09-19T17:37:58;20.10;99.90
9662;DHT22;24982;52.344;12.990;2023-09-19T17:41:02;20.10;99.90
9662;DHT22;24982;52.344;12.990;2023-09-19T17:44:04;20.20;99.90
9662;DHT22;24982;52.344;12.990;2023-09-19T17:47:06;20.20;99.90
9662;DHT22;24982;52.344;12.990;2023-09-19T17:50:09;20.10;99.90
9662;DHT22;24982;52.344;12.990;2023-09-19T17:53:13;20.10;99.90
9662;DHT22;24982;52.344;12.990;2023-09-19T17:56:17;20.10;99.90
9662;DHT22;24982;52.344;12.990;2023-09-19T17:59:19;20.10;99.90
9662;DHT22;24982;52.344;12.990;2023-09-19T18:02:21;20.10;99.90
9662;DHT22;24982;52.344;12.990;2023-09-19T18:05:23;20.10;99.90
9662;DHT22;24982;52.344;12.990;2023-09-19T18:08:26;20.00;99.90
9662;DHT22;24982;52.344;12.990;2023-09-19T18:11:30;19.90;99.90
9662;DHT22;24982;52.344;12.990;2023-09-19T18:14:32;19.90;99.90
9662;DHT22;24982;52.344;12.990;2023-09-19T18:17:34;19.80;99.90
9662;DHT22;24982;52.344;12.990;2023-09-19T18:20:37;19.80;99.90
9662;DHT22;24982;52.344;12.990;2023-09-19T18:23:40;19.90;99.90
9662;DHT22;24982;52.344;12.990;2023-09-19T18:26:43;19.90;99.90
9662;DHT22;24982;52.344;12.990;2023-09-19T18:29:45;19.80;99.90
9662;DHT22;24982;52.344;12.990;2023-09-19T18:32:47;19.90;99.90
9662;DHT22;24982;52.344;12.990;2023-09-19T18:35:50;19.90;99.90
9662;DHT22;24982;52.344;12.990;2023-09-19T18:38:52;19.90;99.90
9662;DHT22;24982;52.344;12.990;2023-09-19T18:41:55;20.00;99.90
9662;DHT22;24982;52.344;12.990;2023-09-19T18:44:57;20.00;99.90
9662;DHT22;24982;52.344;12.990;2023-09-19T18:48:00;19.90;99.90
9662;DHT22;24982;52.344;12.990;2023-09-19T18:51:05;19.70;99.90
9662;DHT22;24982;52.344;12.990;2023-09-19T18:54:07;19.80;99.90
9662;DHT22;24982;52.344;12.990;2023-09-19T18:57:12;19.90;99.90
9662;DHT22;24982;52.344;12.990;2023-09-19T19:00:15;19.90;99.90
9662;DHT22;24982;52.344;12.990;2023-09-19T19:03:18;19.80;99.90
9662;DHT22;24982;52.344;12.990;2023-09-19T19:06:20;19.90;99.90
9662;DHT22;24982;52.344;12.990;2023-09-19T19:09:23;19.80;99.90
9662;DHT22;24982;52.344;12.990;2023-09-19T19:12:26;19.70;99.90
9662;DHT22;24982;52.344;12.990;2023-09-19T19:15:28;19.80;99.90
9662;DHT22;24982;52.344;12.990;2023-09-19T19:18:31;19.80;99.90
9662;DHT22;24982;52.344;12.990;2023-09-19T19:21:33;19.80;99.90
9662;DHT22;24982;52.344;12.990;2023-09-19T19:24:35;19.80;99.90
9662;DHT22;24982;52.344;12.990;2023-09-19T19:27:39;19.70;99.90
9662;DHT22;24982;52.344;12.990;2023-09-19T19:30:43;19.80;99.90
9662;DHT22;24982;52.344;12.990;2023-09-19T19:33:47;19.60;99.90
9662;DHT22;24982;52.344;12.990;2023-09-19T19:36:49;19.60;99.90
9662;DHT22;24982;52.344;12.990;2023-09-19T19:39:51;19.60;99.90